Time;durP1;ratioP1;P1;durP2;ratioP2;P2;SDS_P1;SDS_P2;PMS_P1;PMS_P2;Temp;Humidity;BMP_temperature;BMP_pressure;BME280_temperature;BME280_humidity;BME280_pressure;Samples;Min_cycle;Max_cycle;Signal;HPM_P1;HPM_P2
2021/04/23 00:00:36;;;;;;;8.27;4.00;;;5.30;99.90;;;;;;5076380;28;20223;-69
2021/04/23 00:03:07;;;;;;;8.50;3.73;;;5.30;99.90;;;;;;5079343;28;20194;-69
2021/04/23 00:05:33;;;;;;;7.53;4.60;;;5.00;99.90;;;;;;5078956;28;20255;-69
2021/04/23 00:08:00;;;;;;;7.77;4.53;;;5.30;99.90;;;;;;5081084;28;20239;-69
2021/04/23 00:10:27;;;;;;;9.10;4.47;;;5.30;99.90;;;;;;5083735;28;20228;-69
2021/04/23 00:12:53;;;;;;;10.70;5.00;;;5.20;99.90;;;;;;5086045;28;20208;-69
2021/04/23 00:15:22;;;;;;;8.13;4.10;;;5.20;99.90;;;;;;5089479;28;20562;-68
2021/04/23 00:17:49;;;;;;;9.80;4.10;;;5.20;99.90;;;;;;5089763;28;20687;-69
2021/04/23 00:20:17;;;;;;;8.03;4.40;;;5.20;99.90;;;;;;5088369;28;20348;-70
2021/04/23 00:22:44;;;;;;;6.60;3.80;;;5.10;99.90;;;;;;5087077;28;20236;-68
2021/04/23 00:25:13;;;;;;;7.47;4.43;;;5.10;99.90;;;;;;5083296;28;20211;-69
2021/04/23 00:27:41;;;;;;;11.50;4.63;;;5.10;99.90;;;;;;5092359;28;20274;-69
2021/04/23 00:30:09;;;;;;;7.23;4.73;;;5.00;99.90;;;;;;5091777;28;20243;-69
2021/04/23 00:32:52;;;;;;;8.90;4.50;;;5.10;99.90;;;;;;5085924;28;20250;-70
2021/04/23 00:35:19;;;;;;;7.43;4.37;;;5.10;99.90;;;;;;5091045;28;20204;-70
2021/04/23 00:37:47;;;;;;;7.57;4.47;;;5.10;99.90;;;;;;5095490;28;20205;-70
2021/04/23 00:40:17;;;;;;;9.30;4.70;;;5.10;99.90;;;;;;5082820;28;20215;-69
2021/04/23 00:42:43;;;;;;;9.30;4.73;;;5.10;99.90;;;;;;5086128;28;20331;-70
2021/04/23 00:45:12;;;;;;;11.40;4.47;;;5.10;99.90;;;;;;5089289;28;20677;-69
2021/04/23 00:47:40;;;;;;;7.97;4.40;;;5.10;99.90;;;;;;5077580;28;20298;-69
2021/04/23 00:50:07;;;;;;;8.83;4.33;;;5.00;99.90;;;;;;5083150;28;20215;-69
2021/04/23 00:52:34;;;;;;;7.13;4.20;;;5.00;99.90;;;;;;5083662;28;20244;-72
2021/04/23 00:55:00;;;;;;;9.57;4.50;;;5.00;99.90;;;;;;5085876;28;20255;-69
2021/04/23 00:57:27;;;;;;;8.10;4.57;;;5.00;99.90;;;;;;5080500;28;20270;-69
2021/04/23 00:59:53;;;;;;;7.23;4.30;;;5.00;99.90;;;;;;5079393;28;20295;-68
2021/04/23 01:02:20;;;;;;;8.80;4.53;;;5.00;99.90;;;;;;5085052;28;20200;-68
2021/04/23 01:04:49;;;;;;;10.10;4.40;;;5.00;99.90;;;;;;5082345;28;20648;-70
2021/04/23 01:07:15;;;;;;;10.73;5.13;;;5.00;99.90;;;;;;5079983;28;20324;-68
2021/04/23 01:09:42;;;;;;;8.47;4.40;;;5.00;99.90;;;;;;5082777;28;20213;-69
2021/04/23 01:12:10;;;;;;;10.10;4.43;;;5.00;99.90;;;;;;5074733;28;20228;-69
2021/04/23 01:14:36;;;;;;;7.50;4.67;;;5.00;99.90;;;;;;5072950;28;20698;-69
2021/04/23 01:17:04;;;;;;;8.87;4.77;;;5.00;99.90;;;;;;5087338;28;20207;-69
2021/04/23 01:19:31;;;;;;;12.03;5.30;;;5.00;99.90;;;;;;5085997;28;20659;-69
2021/04/23 01:21:58;;;;;;;9.43;4.70;;;5.00;99.90;;;;;;5083349;28;20696;-69
2021/04/23 01:24:26;;;;;;;12.93;4.70;;;4.90;99.90;;;;;;5074329;28;20725;-70
2021/04/23 01:26:56;;;;;;;8.13;4.63;;;4.90;99.90;;;;;;5071761;28;20704;-69
2021/04/23 01:29:24;;;;;;;7.37;3.90;;;4.90;99.90;;;;;;5091411;28;20232;-69
2021/04/23 01:31:53;;;;;;;10.10;5.63;;;4.90;99.90;;;;;;5080531;28;20233;-69
2021/04/23 01:34:24;;;;;;;9.50;5.27;;;4.90;99.90;;;;;;5077508;28;20301;-69
2021/04/23 01:36:53;;;;;;;8.03;4.33;;;4.90;99.90;;;;;;5083103;28;20208;-69
2021/04/23 01:39:28;;;;;;;9.20;5.07;;;4.90;99.90;;;;;;5077083;28;20201;-69
2021/04/23 01:41:56;;;;;;;9.17;3.90;;;5.00;99.90;;;;;;5082135;28;20200;-68
2021/04/23 01:44:23;;;;;;;9.37;4.87;;;4.90;99.90;;;;;;5087926;28;20201;-70
2021/04/23 01:46:50;;;;;;;9.00;4.70;;;4.90;99.90;;;;;;5086832;28;20284;-69
2021/04/23 01:49:19;;;;;;;8.17;4.63;;;4.90;99.90;;;;;;5088822;28;20213;-70
2021/04/23 01:51:48;;;;;;;7.67;4.53;;;4.90;99.90;;;;;;5094970;28;20217;-69
2021/04/23 01:54:16;;;;;;;8.20;4.47;;;4.90;99.90;;;;;;5086908;28;20208;-70
2021/04/23 01:56:44;;;;;;;10.87;5.17;;;4.90;99.90;;;;;;5082778;28;20224;-69
2021/04/23 01:59:13;;;;;;;10.27;4.77;;;4.90;99.90;;;;;;5087135;28;20554;-69
2021/04/23 02:01:40;;;;;;;10.77;4.70;;;4.80;99.90;;;;;;5092433;28;20289;-69
2021/04/23 02:04:10;;;;;;;10.87;4.70;;;4.80;99.90;;;;;;5096869;28;20312;-69
2021/04/23 02:06:38;;;;;;;8.87;4.20;;;4.80;99.90;;;;;;5095537;28;20296;-69
2021/04/23 02:09:08;;;;;;;10.23;4.70;;;4.80;99.90;;;;;;5079515;28;20288;-70
2021/04/23 02:11:35;;;;;;;8.60;4.73;;;4.80;99.90;;;;;;5089961;28;20224;-69
2021/04/23 02:14:03;;;;;;;9.47;5.10;;;4.70;99.90;;;;;;5083736;28;20217;-69
2021/04/23 02:16:33;;;;;;;7.37;4.27;;;4.70;99.90;;;;;;5085965;28;20209;-70
2021/04/23 02:19:00;;;;;;;11.30;5.33;;;4.70;99.90;;;;;;5083092;28;20665;-69
2021/04/23 02:21:27;;;;;;;10.00;4.73;;;4.70;99.90;;;;;;5083692;28;20215;-69
2021/04/23 02:23:53;;;;;;;9.77;5.00;;;4.70;99.90;;;;;;5079645;28;20235;-69
2021/04/23 02:26:22;;;;;;;10.43;4.87;;;4.70;99.90;;;;;;5088172;28;20233;-69
2021/04/23 02:28:50;;;;;;;10.47;4.67;;;4.60;99.90;;;;;;5084941;28;20213;-69
2021/04/23 02:31:21;;;;;;;10.33;5.30;;;4.60;99.90;;;;;;5080756;28;20315;-68
2021/04/23 02:33:50;;;;;;;9.33;4.60;;;4.60;99.90;;;;;;5079771;28;20231;-70
2021/04/23 02:36:18;;;;;;;9.17;4.27;;;4.60;99.90;;;;;;5085487;28;20657;-69
2021/04/23 02:38:46;;;;;;;10.10;4.77;;;4.60;99.90;;;;;;5081313;28;20279;-69
2021/04/23 02:41:15;;;;;;;10.27;5.00;;;4.50;99.90;;;;;;5083183;28;20204;-69
2021/04/23 02:43:45;;;;;;;7.50;4.53;;;4.50;99.90;;;;;;5083184;28;20201;-70
2021/04/23 02:46:12;;;;;;;7.67;4.60;;;4.50;99.90;;;;;;5081638;28;20260;-70
2021/04/23 02:48:42;;;;;;;8.50;5.10;;;4.50;99.90;;;;;;5081982;28;20218;-69
2021/04/23 02:51:11;;;;;;;14.43;5.70;;;4.40;99.90;;;;;;5092462;28;20242;-69
2021/04/23 02:53:38;;;;;;;9.23;4.60;;;4.40;99.90;;;;;;5075318;28;20229;-68
2021/04/23 02:56:06;;;;;;;11.47;4.63;;;4.40;99.90;;;;;;5081332;28;20216;-69
2021/04/23 02:58:33;;;;;;;10.40;5.07;;;4.40;99.90;;;;;;5079564;28;20197;-70
2021/04/23 03:01:06;;;;;;;6.80;4.50;;;4.30;99.90;;;;;;5082544;28;20584;-70
2021/04/23 03:03:33;;;;;;;13.00;4.57;;;4.30;99.90;;;;;;5085797;28;20296;-69
2021/04/23 03:06:00;;;;;;;7.77;4.33;;;4.30;99.90;;;;;;5094266;28;20634;-68
2021/04/23 03:08:28;;;;;;;9.10;4.47;;;4.30;99.90;;;;;;5085548;28;20211;-68
2021/04/23 03:10:58;;;;;;;7.57;4.27;;;4.30;99.90;;;;;;5087091;28;20217;-68
2021/04/23 03:13:27;;;;;;;7.90;4.73;;;4.30;99.90;;;;;;5083600;28;20228;-70
2021/04/23 03:15:55;;;;;;;10.13;4.67;;;4.30;99.90;;;;;;5074489;28;20281;-68
2021/04/23 03:18:24;;;;;;;8.00;4.57;;;4.30;99.90;;;;;;5085333;28;20205;-68
2021/04/23 03:20:54;;;;;;;8.70;4.40;;;4.30;99.90;;;;;;5092373;28;20637;-70
2021/04/23 03:23:22;;;;;;;7.97;4.40;;;4.30;99.90;;;;;;5077201;28;20275;-69
2021/04/23 03:25:50;;;;;;;6.73;4.30;;;4.30;99.90;;;;;;5079252;28;20291;-71
2021/04/23 03:28:16;;;;;;;8.73;4.70;;;4.30;99.90;;;;;;5090904;28;20257;-69
2021/04/23 03:30:44;;;;;;;9.30;4.63;;;4.20;99.90;;;;;;5080792;28;20773;-68
2021/04/23 03:33:12;;;;;;;13.37;4.80;;;4.20;99.90;;;;;;5088835;28;20257;-71
2021/04/23 03:35:41;;;;;;;9.13;4.17;;;4.20;99.90;;;;;;5083497;28;20207;-68
2021/04/23 03:38:09;;;;;;;8.50;4.03;;;4.20;99.90;;;;;;5084457;28;20228;-69
2021/04/23 03:40:37;;;;;;;7.87;4.40;;;4.10;99.90;;;;;;5078426;28;20197;-69
2021/04/23 03:43:05;;;;;;;12.33;4.60;;;4.10;99.90;;;;;;5082966;28;20685;-69
2021/04/23 03:45:32;;;;;;;10.33;4.07;;;4.10;99.90;;;;;;5084994;28;20232;-69
2021/04/23 03:47:59;;;;;;;7.63;4.60;;;4.10;99.90;;;;;;5087151;28;20219;-69
2021/04/23 03:50:28;;;;;;;8.63;4.40;;;4.10;99.90;;;;;;5081870;28;20331;-69
2021/04/23 03:52:57;;;;;;;8.77;4.23;;;4.10;99.90;;;;;;5077082;28;20288;-69
2021/04/23 03:55:29;;;;;;;9.90;4.43;;;4.20;99.90;;;;;;5080764;28;20202;-69
2021/04/23 03:57:58;;;;;;;8.97;4.13;;;4.20;99.90;;;;;;5080877;28;20292;-69
2021/04/23 04:00:29;;;;;;;6.10;3.93;;;4.20;99.90;;;;;;5081328;28;20196;-69
2021/04/23 04:02:55;;;;;;;6.40;3.90;;;4.30;99.90;;;;;;5082247;28;20244;-69
2021/04/23 04:05:22;;;;;;;7.30;4.20;;;4.30;99.90;;;;;;5081545;28;20204;-69
2021/04/23 04:07:48;;;;;;;8.07;4.03;;;4.30;99.90;;;;;;5087117;28;20362;-68
2021/04/23 04:10:16;;;;;;;6.47;3.90;;;4.40;99.90;;;;;;5076730;28;20215;-69
2021/04/23 04:12:43;;;;;;;10.43;4.30;;;4.40;99.90;;;;;;5078817;28;20288;-69
2021/04/23 04:15:11;;;;;;;6.40;4.40;;;4.50;99.90;;;;;;5079945;28;20221;-70
2021/04/23 04:17:38;;;;;;;9.17;3.90;;;4.50;99.90;;;;;;5083730;28;20240;-70
2021/04/23 04:20:06;;;;;;;6.53;4.27;;;4.60;99.90;;;;;;5081685;28;20197;-70
2021/04/23 04:22:34;;;;;;;9.10;4.30;;;4.70;99.90;;;;;;5083055;28;20212;-69
2021/04/23 04:25:01;;;;;;;6.90;3.70;;;4.60;99.90;;;;;;5083244;28;20211;-69
2021/04/23 04:27:28;;;;;;;7.00;3.30;;;4.70;99.90;;;;;;5091575;28;20208;-70
2021/04/23 04:29:55;;;;;;;7.37;3.60;;;4.70;99.90;;;;;;5080378;28;20239;-69
2021/04/23 04:32:22;;;;;;;8.73;3.77;;;4.80;99.90;;;;;;5074763;28;20228;-69
2021/04/23 04:34:49;;;;;;;6.60;3.93;;;4.80;99.90;;;;;;5084636;28;20208;-68
2021/04/23 04:37:15;;;;;;;6.37;3.70;;;4.80;99.90;;;;;;5081118;28;20246;-68
2021/04/23 04:39:42;;;;;;;7.73;4.10;;;4.90;99.90;;;;;;5078448;28;20209;-70
2021/04/23 04:42:09;;;;;;;6.23;3.43;;;4.90;99.90;;;;;;5084440;28;20554;-69
2021/04/23 04:44:36;;;;;;;7.87;3.87;;;5.00;99.90;;;;;;5078653;28;20216;-69
2021/04/23 04:47:03;;;;;;;6.33;3.50;;;5.10;99.90;;;;;;5086143;28;20594;-69
2021/04/23 04:49:30;;;;;;;7.23;3.67;;;5.20;99.90;;;;;;5083082;28;20220;-69
2021/04/23 04:51:57;;;;;;;6.67;3.47;;;5.30;99.90;;;;;;5078491;28;20312;-69
2021/04/23 04:54:23;;;;;;;6.27;3.53;;;5.30;99.90;;;;;;5086229;28;20288;-69
2021/04/23 04:56:50;;;;;;;6.07;3.87;;;5.40;99.90;;;;;;5076996;28;20246;-68
2021/04/23 04:59:17;;;;;;;6.57;3.27;;;5.40;99.90;;;;;;5085284;28;21276;-70
2021/04/23 05:01:44;;;;;;;7.13;3.60;;;5.50;99.90;;;;;;5080520;28;20204;-69
2021/04/23 05:04:13;;;;;;;9.73;3.67;;;5.60;99.90;;;;;;5080920;28;20201;-69
2021/04/23 05:06:41;;;;;;;7.37;3.53;;;5.70;99.90;;;;;;5096359;28;20288;-70
2021/04/23 05:09:09;;;;;;;7.83;3.80;;;5.70;99.90;;;;;;5090028;28;20736;-69
2021/04/23 05:11:35;;;;;;;7.03;4.27;;;5.80;99.90;;;;;;5091673;28;20217;-69
2021/04/23 05:14:02;;;;;;;5.53;3.63;;;5.90;99.90;;;;;;5079919;28;20689;-69
2021/04/23 05:16:28;;;;;;;8.60;4.07;;;6.00;99.90;;;;;;5087526;28;20347;-69
2021/04/23 05:18:57;;;;;;;11.17;4.00;;;6.00;99.90;;;;;;5085523;28;20649;-71
2021/04/23 05:21:24;;;;;;;10.13;4.67;;;6.10;99.90;;;;;;5086780;28;20264;-70
2021/04/23 05:23:51;;;;;;;10.33;4.37;;;6.10;99.90;;;;;;5087230;28;20208;-70
2021/04/23 05:26:18;;;;;;;5.63;3.87;;;6.20;99.90;;;;;;5084566;28;20315;-70
2021/04/23 05:28:45;;;;;;;8.73;3.70;;;6.30;99.90;;;;;;5089537;28;20205;-68
2021/04/23 05:31:14;;;;;;;10.77;4.27;;;6.30;99.90;;;;;;5075543;28;20240;-69
2021/04/23 05:33:40;;;;;;;10.37;3.90;;;6.40;99.90;;;;;;5080546;28;20309;-69
2021/04/23 05:36:07;;;;;;;10.53;4.53;;;6.40;99.90;;;;;;5081715;28;20315;-69
2021/04/23 05:38:33;;;;;;;13.17;4.17;;;6.50;99.90;;;;;;5075118;28;20776;-69
2021/04/23 05:41:01;;;;;;;10.93;3.67;;;6.60;99.90;;;;;;5076301;28;20203;-70
2021/04/23 05:43:27;;;;;;;9.23;3.77;;;6.70;99.90;;;;;;5087306;28;20217;-69
2021/04/23 05:45:54;;;;;;;10.07;4.50;;;6.80;99.90;;;;;;5073311;28;20223;-71
2021/04/23 05:48:20;;;;;;;9.87;3.77;;;6.90;99.90;;;;;;5083985;28;20346;-69
2021/04/23 05:50:48;;;;;;;7.43;3.80;;;7.00;99.90;;;;;;5071153;28;20225;-69
2021/04/23 05:53:14;;;;;;;6.67;4.17;;;7.10;99.90;;;;;;5080649;28;20296;-69
2021/04/23 05:55:41;;;;;;;8.13;4.30;;;7.20;99.90;;;;;;5080922;28;20216;-69
2021/04/23 05:58:09;;;;;;;8.27;4.07;;;7.20;99.90;;;;;;5075804;28;20300;-69
2021/04/23 06:00:37;;;;;;;10.13;4.23;;;7.30;99.90;;;;;;5078735;28;20261;-67
2021/04/23 06:03:05;;;;;;;6.73;4.07;;;7.40;99.90;;;;;;5086567;28;20360;-69
2021/04/23 06:05:32;;;;;;;12.80;4.47;;;7.40;99.90;;;;;;5087795;28;20226;-69
2021/04/23 06:08:01;;;;;;;8.00;4.40;;;7.50;99.90;;;;;;5083252;28;20209;-67
2021/04/23 06:10:28;;;;;;;13.20;4.57;;;7.50;99.90;;;;;;5083362;28;20291;-69
2021/04/23 06:12:55;;;;;;;9.23;3.93;;;7.50;99.90;;;;;;5078820;28;20259;-69
2021/04/23 06:15:24;;;;;;;8.03;4.13;;;7.50;99.90;;;;;;5090626;28;20221;-70
2021/04/23 06:17:53;;;;;;;8.60;4.20;;;7.50;99.90;;;;;;5078473;28;20233;-69
2021/04/23 06:20:22;;;;;;;6.93;4.40;;;7.40;99.90;;;;;;5082530;28;20223;-69
2021/04/23 06:22:49;;;;;;;10.40;4.60;;;7.50;99.90;;;;;;5082032;28;20201;-70
2021/04/23 06:25:19;;;;;;;10.97;4.60;;;7.50;99.90;;;;;;5091948;28;20208;-69
2021/04/23 06:27:50;;;;;;;9.87;4.73;;;7.60;99.90;;;;;;5082088;28;20197;-69
2021/04/23 06:30:21;;;;;;;7.57;4.37;;;7.70;99.90;;;;;;5079230;28;20244;-72
2021/04/23 06:32:49;;;;;;;9.27;4.70;;;7.80;99.90;;;;;;5080091;28;20687;-70
2021/04/23 06:35:17;;;;;;;9.27;4.63;;;7.90;99.90;;;;;;5088366;28;20293;-69
2021/04/23 06:37:44;;;;;;;8.50;3.67;;;8.00;99.90;;;;;;5090145;28;20232;-70
2021/04/23 06:40:13;;;;;;;7.90;3.97;;;8.10;99.80;;;;;;5083795;28;20674;-70
2021/04/23 06:42:39;;;;;;;9.77;4.57;;;8.00;99.50;;;;;;5088511;28;20233;-70
2021/04/23 06:45:09;;;;;;;8.83;4.70;;;8.10;99.40;;;;;;5078512;28;20563;-70
2021/04/23 06:47:36;;;;;;;10.07;4.37;;;8.20;99.30;;;;;;5078569;28;20205;-70
2021/04/23 06:50:07;;;;;;;8.13;4.27;;;8.20;99.00;;;;;;5078410;28;20623;-71
2021/04/23 06:52:34;;;;;;;9.73;4.20;;;8.30;98.10;;;;;;5078229;28;20209;-70
2021/04/23 06:55:02;;;;;;;9.37;4.53;;;8.40;97.60;;;;;;5080607;28;20251;-72
2021/04/23 06:57:29;;;;;;;7.40;4.10;;;8.50;97.20;;;;;;5085497;28;20213;-70
2021/04/23 06:59:55;;;;;;;7.67;3.93;;;8.70;96.80;;;;;;5077572;28;20229;-71
2021/04/23 07:02:22;;;;;;;8.97;4.07;;;8.90;95.70;;;;;;5078159;28;20204;-70
2021/04/23 07:04:49;;;;;;;8.60;4.17;;;9.10;95.30;;;;;;5083358;28;20866;-70
2021/04/23 07:07:16;;;;;;;8.73;4.60;;;9.10;94.70;;;;;;5089191;28;20288;-71
2021/04/23 07:09:43;;;;;;;10.00;4.83;;;9.30;94.20;;;;;;5083846;28;20233;-70
2021/04/23 07:12:10;;;;;;;9.20;4.73;;;9.40;93.30;;;;;;5078546;28;20631;-70
2021/04/23 07:14:36;;;;;;;7.33;4.23;;;9.40;93.00;;;;;;5076029;28;20247;-69
2021/04/23 07:17:04;;;;;;;7.03;4.33;;;9.40;92.90;;;;;;5074837;28;20209;-70
2021/04/23 07:19:30;;;;;;;6.50;3.77;;;9.50;92.30;;;;;;5075663;28;20238;-71
2021/04/23 07:21:57;;;;;;;7.10;4.20;;;9.60;91.80;;;;;;5070276;28;20293;-72
2021/04/23 07:24:24;;;;;;;6.70;4.17;;;9.60;91.50;;;;;;5070566;28;20268;-70
2021/04/23 07:26:51;;;;;;;7.47;4.30;;;9.60;92.10;;;;;;5073865;28;20292;-71
2021/04/23 07:29:17;;;;;;;10.80;4.37;;;9.70;91.30;;;;;;5073715;28;20236;-70
2021/04/23 07:31:44;;;;;;;9.90;3.83;;;9.80;91.00;;;;;;5074877;28;20275;-71
2021/04/23 07:34:10;;;;;;;9.77;4.03;;;9.90;90.70;;;;;;5075544;28;20216;-69
2021/04/23 07:36:37;;;;;;;6.47;3.60;;;10.00;89.90;;;;;;5074753;28;20262;-72
2021/04/23 07:39:04;;;;;;;7.17;3.77;;;10.20;87.90;;;;;;5073831;28;20338;-70
2021/04/23 07:41:31;;;;;;;6.60;3.33;;;10.30;85.70;;;;;;5074630;28;20205;-68
2021/04/23 07:43:58;;;;;;;5.50;3.30;;;10.40;84.30;;;;;;5075001;28;20236;-72
2021/04/23 07:46:26;;;;;;;7.00;3.30;;;10.50;81.50;;;;;;5073973;28;20205;-74
2021/04/23 07:48:52;;;;;;;4.83;3.10;;;10.50;79.00;;;;;;5062045;28;20224;-72
2021/04/23 07:51:19;;;;;;;7.23;3.87;;;10.50;77.40;;;;;;5062754;28;20272;-72
2021/04/23 07:53:47;;;;;;;5.80;3.70;;;10.50;76.90;;;;;;5074142;28;20276;-75
2021/04/23 07:56:15;;;;;;;6.37;3.30;;;10.50;77.00;;;;;;5073658;28;20240;-73
2021/04/23 07:58:42;;;;;;;7.57;3.27;;;10.60;77.30;;;;;;5072298;28;20685;-73
2021/04/23 08:01:09;;;;;;;7.73;3.33;;;10.80;75.50;;;;;;5075883;28;20225;-73
2021/04/23 08:03:35;;;;;;;4.97;3.17;;;10.80;74.60;;;;;;5075072;28;20230;-72
2021/04/23 08:06:02;;;;;;;6.23;3.10;;;10.80;73.20;;;;;;5073875;28;20304;-71
2021/04/23 08:08:28;;;;;;;8.73;3.40;;;10.80;72.40;;;;;;5075340;28;20209;-72
2021/04/23 08:10:54;;;;;;;5.97;3.10;;;10.80;70.30;;;;;;5075536;28;20236;-70
2021/04/23 08:13:21;;;;;;;8.10;3.30;;;10.90;69.10;;;;;;5074930;28;21156;-72
2021/04/23 08:15:50;;;;;;;4.40;2.63;;;11.00;68.00;;;;;;5074523;28;20684;-73
2021/04/23 08:18:17;;;;;;;8.07;2.77;;;11.00;67.00;;;;;;5075447;28;20229;-71
2021/04/23 08:20:43;;;;;;;5.00;2.93;;;11.10;66.70;;;;;;5074718;28;20279;-73
2021/04/23 08:23:10;;;;;;;7.17;2.70;;;11.20;66.60;;;;;;5073258;28;20646;-72
2021/04/23 08:25:36;;;;;;;6.17;2.87;;;11.40;64.50;;;;;;5074712;28;20300;-71
2021/04/23 08:28:03;;;;;;;5.70;2.80;;;11.40;63.40;;;;;;5075937;28;20205;-73
2021/04/23 08:30:29;;;;;;;8.13;3.80;;;11.50;63.50;;;;;;5078252;28;20237;-71
2021/04/23 08:32:58;;;;;;;8.93;3.47;;;11.50;63.90;;;;;;5079651;28;20324;-68
2021/04/23 08:35:25;;;;;;;5.60;3.00;;;11.50;64.40;;;;;;5086855;28;20699;-72
2021/04/23 08:37:54;;;;;;;6.30;3.20;;;11.50;64.80;;;;;;5077866;28;20292;-72
2021/04/23 08:40:21;;;;;;;7.03;3.17;;;11.60;63.80;;;;;;5077835;28;20201;-72
2021/04/23 08:42:48;;;;;;;4.30;2.80;;;11.70;63.50;;;;;;5078912;28;20216;-71
2021/04/23 08:45:17;;;;;;;7.97;3.67;;;11.80;61.40;;;;;;5078279;28;20624;-71
2021/04/23 08:47:45;;;;;;;5.43;3.07;;;11.80;60.70;;;;;;5076580;28;20296;-70
2021/04/23 08:50:14;;;;;;;6.67;3.03;;;11.80;60.00;;;;;;5076297;28;20715;-72
2021/04/23 08:52:42;;;;;;;6.07;2.57;;;11.90;59.70;;;;;;5081943;28;20710;-72
2021/04/23 08:55:10;;;;;;;4.53;2.20;;;12.00;58.70;;;;;;5080278;28;20614;-71
2021/04/23 08:57:37;;;;;;;6.27;2.73;;;12.10;57.10;;;;;;5077772;28;20213;-71
2021/04/23 09:00:06;;;;;;;3.73;3.07;;;12.20;56.70;;;;;;5080669;28;20205;-72
2021/04/23 09:02:32;;;;;;;4.00;2.73;;;12.30;57.00;;;;;;5083532;28;20211;-71
2021/04/23 09:05:00;;;;;;;8.70;2.83;;;12.30;56.90;;;;;;5087217;28;20197;-72
2021/04/23 09:07:28;;;;;;;6.00;3.10;;;12.20;57.00;;;;;;5084746;28;20268;-71
2021/04/23 09:10:07;;;;;;;6.90;3.43;;;12.10;57.90;;;;;;5085373;28;20296;-71
2021/04/23 09:12:33;;;;;;;5.93;3.37;;;11.80;58.40;;;;;;5088431;28;20303;-70
2021/04/23 09:15:02;;;;;;;4.00;2.73;;;11.70;58.90;;;;;;5091184;28;20260;-71
2021/04/23 09:17:29;;;;;;;5.43;2.03;;;11.60;58.90;;;;;;5082801;28;20265;-71
2021/04/23 09:19:57;;;;;;;5.20;2.40;;;11.30;56.80;;;;;;5087951;28;20262;-74
2021/04/23 09:22:28;;;;;;;5.90;2.50;;;11.10;56.00;;;;;;5085979;28;20201;-72
2021/04/23 09:25:04;;;;;;;4.97;2.70;;;10.90;57.20;;;;;;5083846;28;20229;-71
2021/04/23 09:27:32;;;;;;;4.50;2.57;;;10.60;58.90;;;;;;5090112;28;20303;-72
2021/04/23 09:30:00;;;;;;;4.17;2.40;;;10.40;60.30;;;;;;5090542;28;20257;-71
2021/04/23 09:32:29;;;;;;;5.33;2.43;;;10.30;61.60;;;;;;5079517;28;20228;-72
2021/04/23 09:34:58;;;;;;;5.37;2.57;;;10.40;64.10;;;;;;5087583;28;20241;-71
2021/04/23 09:37:28;;;;;;;4.60;2.90;;;10.80;64.70;;;;;;5085980;28;20542;-71
2021/04/23 09:40:08;;;;;;;4.80;2.63;;;11.20;63.80;;;;;;5081935;28;20653;-71
2021/04/23 09:42:44;;;;;;;5.17;2.93;;;11.70;63.10;;;;;;5091531;28;20201;-71
2021/04/23 09:45:12;;;;;;;11.13;3.60;;;12.10;60.60;;;;;;5088534;28;20235;-72
2021/04/23 09:47:39;;;;;;;4.67;2.73;;;12.60;60.00;;;;;;5088673;28;20212;-72
2021/04/23 09:50:07;;;;;;;4.63;2.60;;;12.80;58.00;;;;;;5086978;28;20682;-71
2021/04/23 09:52:47;;;;;;;2.73;2.30;;;12.70;56.30;;;;;;5089437;28;20319;-71
2021/04/23 09:55:13;;;;;;;4.17;2.10;;;12.50;55.60;;;;;;5091528;28;20584;-71
2021/04/23 09:57:48;;;;;;;4.90;2.20;;;12.40;55.40;;;;;;5084504;28;20212;-71
2021/04/23 10:00:16;;;;;;;3.00;1.77;;;12.30;55.80;;;;;;5090284;28;20284;-71
2021/04/23 10:02:43;;;;;;;2.60;1.80;;;12.50;55.20;;;;;;5083512;28;20201;-72
2021/04/23 10:05:10;;;;;;;5.10;1.83;;;12.80;54.00;;;;;;5085398;28;20234;-71
2021/04/23 10:07:39;;;;;;;7.17;2.00;;;13.20;54.10;;;;;;5084508;28;20236;-71
2021/04/23 10:10:08;;;;;;;8.23;2.37;;;13.60;54.10;;;;;;5086390;28;20292;-72
2021/04/23 10:12:42;;;;;;;3.60;1.80;;;14.10;52.50;;;;;;5079559;28;20228;-71
2021/04/23 10:15:12;;;;;;;2.70;1.63;;;14.50;50.60;;;;;;5080385;28;20236;-71
2021/04/23 10:17:40;;;;;;;2.00;1.57;;;14.80;49.10;;;;;;5079787;28;20202;-72
2021/04/23 10:20:10;;;;;;;2.00;1.30;;;14.90;47.20;;;;;;5085174;28;20201;-72
2021/04/23 10:22:41;;;;;;;3.73;1.50;;;15.00;46.30;;;;;;5085565;28;20208;-75
2021/04/23 10:25:09;;;;;;;2.40;1.57;;;15.10;45.40;;;;;;5084366;28;20242;-73
2021/04/23 10:27:36;;;;;;;3.30;1.63;;;15.30;45.40;;;;;;5090443;28;20686;-74
2021/04/23 10:30:07;;;;;;;4.70;1.63;;;15.40;44.80;;;;;;5076853;28;20237;-73
2021/04/23 10:32:34;;;;;;;2.50;1.57;;;15.20;44.50;;;;;;5076270;28;20221;-72
2021/04/23 10:35:01;;;;;;;10.27;1.90;;;14.90;44.70;;;;;;5076473;28;20209;-71
2021/04/23 10:37:28;;;;;;;5.23;1.23;;;14.40;48.00;;;;;;5076008;28;20269;-72
2021/04/23 10:39:56;;;;;;;1.57;1.20;;;13.80;50.70;;;;;;5079039;28;20240;-71
2021/04/23 10:42:51;;;;;;;2.87;1.00;;;13.10;53.20;;;;;;5075362;28;20300;-71
2021/04/23 10:45:38;;;;;;;1.43;1.20;;;12.20;56.60;;;;;;5039466;28;20245;-72
2021/04/23 10:48:26;;;;;;;3.50;1.10;;;11.60;59.70;;;;;;5072979;28;20202;-72
2021/04/23 10:50:54;;;;;;;3.40;1.27;;;10.90;63.70;;;;;;5074747;28;20202;-71
2021/04/23 10:53:33;;;;;;;3.20;1.87;;;10.50;66.60;;;;;;5074613;28;20784;-71
2021/04/23 10:56:03;;;;;;;2.03;1.13;;;10.10;70.20;;;;;;5068106;28;20203;-72
2021/04/23 10:58:39;;;;;;;1.30;1.20;;;9.70;74.80;;;;;;5079336;28;20235;-73
2021/04/23 11:01:22;;;;;;;2.73;1.60;;;9.40;78.50;;;;;;5080254;28;20648;-72
2021/04/23 11:04:03;;;;;;;2.80;1.80;;;9.00;82.70;;;;;;5066761;28;20654;-72
2021/04/23 11:06:31;;;;;;;2.93;1.57;;;8.70;86.60;;;;;;5072442;28;20268;-72
2021/04/23 11:09:09;;;;;;;3.43;1.77;;;8.40;90.90;;;;;;5082388;28;20296;-68
2021/04/23 11:11:38;;;;;;;2.00;1.57;;;8.30;94.70;;;;;;5080951;28;20305;-72
2021/04/23 11:14:25;;;;;;;3.17;2.00;;;8.20;98.00;;;;;;5077198;28;20324;-71
2021/04/23 11:16:53;;;;;;;4.70;1.83;;;8.20;99.90;;;;;;5072639;28;20284;-70
2021/04/23 11:19:37;;;;;;;2.30;1.57;;;8.20;99.90;;;;;;5077241;28;20645;-70
2021/04/23 11:22:16;;;;;;;3.10;1.93;;;8.20;99.90;;;;;;5070256;28;20210;-70
2021/04/23 11:25:02;;;;;;;3.40;2.30;;;8.20;99.90;;;;;;5070488;28;20227;-71
2021/04/23 11:27:29;;;;;;;2.70;1.90;;;8.20;99.90;;;;;;5075784;28;20304;-71
2021/04/23 11:30:08;;;;;;;4.57;2.03;;;8.10;99.90;;;;;;5080809;28;20228;-68
2021/04/23 11:32:36;;;;;;;1.90;1.60;;;8.20;99.90;;;;;;5071000;28;20205;-72
2021/04/23 11:35:18;;;;;;;3.07;2.00;;;8.10;99.90;;;;;;5072526;28;20211;-72
2021/04/23 11:37:50;;;;;;;3.13;2.00;;;8.00;99.90;;;;;;5073035;28;20259;-72
2021/04/23 11:40:20;;;;;;;3.27;2.20;;;7.80;99.90;;;;;;5081710;28;20197;-72
2021/04/23 11:42:49;;;;;;;3.63;1.97;;;7.70;99.90;;;;;;5074651;28;20209;-74
2021/04/23 11:45:17;;;;;;;3.30;2.50;;;7.70;99.90;;;;;;5075070;28;20296;-73
2021/04/23 11:47:45;;;;;;;3.83;2.50;;;7.70;99.90;;;;;;5077215;28;20287;-73
2021/04/23 11:50:16;;;;;;;3.93;2.67;;;7.70;99.90;;;;;;5086449;28;20344;-75
2021/04/23 11:52:44;;;;;;;3.13;2.83;;;7.90;99.90;;;;;;5084419;28;20233;-73
2021/04/23 11:55:15;;;;;;;3.10;2.07;;;8.10;99.90;;;;;;5074045;28;20291;-72
2021/04/23 11:57:42;;;;;;;3.80;2.30;;;8.30;99.90;;;;;;5068701;28;20201;-74
2021/04/23 12:00:13;;;;;;;3.17;2.27;;;8.60;99.90;;;;;;5080008;28;20287;-75
2021/04/23 12:02:52;;;;;;;2.00;1.80;;;9.00;99.90;;;;;;5084450;28;20283;-70
2021/04/23 12:05:30;;;;;;;5.87;2.70;;;9.20;99.90;;;;;;5074913;28;20209;-66
2021/04/23 12:07:59;;;;;;;3.53;2.50;;;9.40;99.90;;;;;;5072069;28;20320;-71
2021/04/23 12:10:27;;;;;;;3.20;1.93;;;9.50;99.90;;;;;;5074172;28;20239;-69
2021/04/23 12:12:54;;;;;;;2.40;2.10;;;9.60;99.90;;;;;;5072876;28;20670;-70
2021/04/23 12:15:31;;;;;;;3.73;1.77;;;9.50;99.90;;;;;;5072962;28;20325;-72
2021/04/23 12:18:00;;;;;;;3.00;1.90;;;9.40;99.90;;;;;;5070241;28;20681;-70
2021/04/23 12:20:29;;;;;;;1.97;1.77;;;9.30;99.90;;;;;;5062969;28;20338;-75
2021/04/23 12:22:56;;;;;;;2.53;1.67;;;9.30;99.90;;;;;;5068616;28;20199;-71
2021/04/23 12:25:32;;;;;;;2.33;1.77;;;9.30;99.90;;;;;;5072574;28;20408;-72
2021/04/23 12:28:33;;;;;;;1.73;1.50;;;9.40;99.90;;;;;;5072979;28;20265;-72
2021/04/23 12:31:10;;;;;;;3.10;1.60;;;9.60;99.90;;;;;;5074038;28;20599;-72
2021/04/23 12:33:39;;;;;;;3.23;1.50;;;9.90;99.90;;;;;;5074401;28;20217;-69
2021/04/23 12:36:21;;;;;;;2.10;1.40;;;10.20;99.90;;;;;;5071217;28;20212;-72
2021/04/23 12:38:50;;;;;;;2.40;1.70;;;10.70;99.90;;;;;;5070912;28;20705;-72
2021/04/23 12:41:20;;;;;;;2.93;2.00;;;10.90;99.90;;;;;;5067032;28;20212;-71
2021/04/23 12:43:47;;;;;;;4.47;2.00;;;11.20;99.10;;;;;;5072595;28;20666;-72
2021/04/23 12:46:30;;;;;;;3.67;1.70;;;11.40;97.60;;;;;;5066096;28;20201;-74
2021/04/23 12:49:03;;;;;;;2.07;1.57;;;11.60;96.30;;;;;;5066389;28;20233;-72
2021/04/23 12:51:30;;;;;;;2.50;1.70;;;11.80;94.40;;;;;;5073504;28;20288;-72
2021/04/23 12:53:58;;;;;;;3.83;2.37;;;12.00;94.50;;;;;;5074075;28;20656;-72
2021/04/23 12:56:26;;;;;;;2.80;2.00;;;12.10;93.40;;;;;;5066377;28;20232;-73
2021/04/23 12:58:53;;;;;;;2.70;1.90;;;12.20;91.60;;;;;;5072875;28;20205;-73
2021/04/23 13:01:20;;;;;;;2.43;1.83;;;12.20;90.10;;;;;;5074149;28;20213;-73